sensor_id;sensor_type;location;lat;lon;timestamp;pressure;altitude;pressure_sealevel;temperature;humidity
36980;BME280;22891;50.562;7.272;2023-03-01T00:01:07;101751.00;;;-2.44;nan
36980;BME280;22891;50.562;7.272;2023-03-01T00:03:33;101750.00;;;-2.50;nan
36980;BME280;22891;50.562;7.272;2023-03-01T00:05:59;101759.00;;;-2.59;nan
36980;BME280;22891;50.562;7.272;2023-03-01T00:08:26;101760.00;;;-2.57;nan
36980;BME280;22891;50.562;7.272;2023-03-01T00:11:07;101768.00;;;-2.61;nan
36980;BME280;22891;50.562;7.272;2023-03-01T00:13:34;101765.00;;;-2.63;nan
36980;BME280;22891;50.562;7.272;2023-03-01T00:16:05;101765.00;;;-2.39;nan
36980;BME280;22891;50.562;7.272;2023-03-01T00:18:33;101751.00;;;-2.56;nan
36980;BME280;22891;50.562;7.272;2023-03-01T00:20:59;101749.00;;;-2.69;nan
36980;BME280;22891;50.562;7.272;2023-03-01T00:23:25;101744.00;;;-2.78;nan
36980;BME280;22891;50.562;7.272;2023-03-01T00:25:52;101761.00;;;-2.84;nan
36980;BME280;22891;50.562;7.272;2023-03-01T00:28:18;101745.00;;;-2.87;nan
36980;BME280;22891;50.562;7.272;2023-03-01T00:30:44;101738.00;;;-2.93;nan
36980;BME280;22891;50.562;7.272;2023-03-01T00:33:10;101715.00;;;-2.86;nan
36980;BME280;22891;50.562;7.272;2023-03-01T00:35:36;101711.00;;;-2.83;nan
36980;BME280;22891;50.562;7.272;2023-03-01T00:38:03;101679.00;;;-2.83;nan
36980;BME280;22891;50.562;7.272;2023-03-01T00:40:32;101689.00;;;-2.81;nan
36980;BME280;22891;50.562;7.272;2023-03-01T00:42:58;101664.00;;;-2.90;nan
36980;BME280;22891;50.562;7.272;2023-03-01T00:45:25;101655.00;;;-2.96;nan
36980;BME280;22891;50.562;7.272;2023-03-01T00:47:52;101661.00;;;-2.82;nan
36980;BME280;22891;50.562;7.272;2023-03-01T00:50:18;101653.00;;;-2.92;nan
36980;BME280;22891;50.562;7.272;2023-03-01T00:52:45;101641.00;;;-3.06;nan
36980;BME280;22891;50.562;7.272;2023-03-01T00:55:11;101636.00;;;-3.06;nan
36980;BME280;22891;50.562;7.272;2023-03-01T00:57:38;101638.00;;;-3.08;nan
36980;BME280;22891;50.562;7.272;2023-03-01T01:00:05;101655.00;;;-3.13;nan
36980;BME280;22891;50.562;7.272;2023-03-01T01:02:33;101662.00;;;-2.97;nan
36980;BME280;22891;50.562;7.272;2023-03-01T01:04:59;101663.00;;;-2.93;nan
36980;BME280;22891;50.562;7.272;2023-03-01T01:07:27;101653.00;;;-3.07;nan
36980;BME280;22891;50.562;7.272;2023-03-01T01:09:53;101654.00;;;-2.98;nan
36980;BME280;22891;50.562;7.272;2023-03-01T01:12:19;101661.00;;;-3.00;nan
36980;BME280;22891;50.562;7.272;2023-03-01T01:14:45;101681.00;;;-2.84;nan
36980;BME280;22891;50.562;7.272;2023-03-01T01:17:11;101683.00;;;-3.21;nan
36980;BME280;22891;50.562;7.272;2023-03-01T01:19:37;101667.00;;;-3.24;nan
36980;BME280;22891;50.562;7.272;2023-03-01T01:22:03;101637.00;;;-3.33;nan
36980;BME280;22891;50.562;7.272;2023-03-01T01:24:29;101635.00;;;-3.41;nan
36980;BME280;22891;50.562;7.272;2023-03-01T01:26:55;101626.00;;;-3.33;nan
36980;BME280;22891;50.562;7.272;2023-03-01T01:29:20;101618.00;;;-3.23;nan
36980;BME280;22891;50.562;7.272;2023-03-01T01:31:56;101620.00;;;-3.18;nan
36980;BME280;22891;50.562;7.272;2023-03-01T01:34:31;101593.00;;;-3.21;nan
36980;BME280;22891;50.562;7.272;2023-03-01T01:36:57;101596.00;;;-3.48;nan
36980;BME280;22891;50.562;7.272;2023-03-01T01:39:23;101578.00;;;-3.40;nan
36980;BME280;22891;50.562;7.272;2023-03-01T01:41:49;101564.00;;;-3.28;nan
36980;BME280;22891;50.562;7.272;2023-03-01T01:44:24;101558.00;;;-3.28;nan
36980;BME280;22891;50.562;7.272;2023-03-01T01:47:04;101511.00;;;-3.50;nan
36980;BME280;22891;50.562;7.272;2023-03-01T01:49:43;101543.00;;;-3.46;nan
36980;BME280;22891;50.562;7.272;2023-03-01T01:52:25;101539.00;;;-3.66;nan
36980;BME280;22891;50.562;7.272;2023-03-01T01:55:18;101517.00;;;-3.58;nan
36980;BME280;22891;50.562;7.272;2023-03-01T01:57:52;101505.00;;;-3.50;nan
36980;BME280;22891;50.562;7.272;2023-03-01T02:00:22;101545.00;;;-3.35;nan
36980;BME280;22891;50.562;7.272;2023-03-01T02:02:53;101555.00;;;-3.41;nan
36980;BME280;22891;50.562;7.272;2023-03-01T02:06:55;101552.00;;;-3.50;nan
36980;BME280;22891;50.562;7.272;2023-03-01T02:09:24;101544.00;;;-3.61;nan
36980;BME280;22891;50.562;7.272;2023-03-01T02:11:51;101547.00;;;-3.50;nan
36980;BME280;22891;50.562;7.272;2023-03-01T02:14:17;101508.00;;;-3.67;nan
36980;BME280;22891;50.562;7.272;2023-03-01T02:16:43;101498.00;;;-3.79;nan
36980;BME280;22891;50.562;7.272;2023-03-01T02:19:17;101508.00;;;-3.88;nan
36980;BME280;22891;50.562;7.272;2023-03-01T02:22:14;101488.00;;;-3.85;nan
36980;BME280;22891;50.562;7.272;2023-03-01T02:31:32;101614.00;;;-3.95;nan
36980;BME280;22891;50.562;7.272;2023-03-01T02:34:09;101492.00;;;-4.01;nan
36980;BME280;22891;50.562;7.272;2023-03-01T02:36:39;101474.00;;;-3.96;nan
36980;BME280;22891;50.562;7.272;2023-03-01T02:39:10;101481.00;;;-3.98;nan
36980;BME280;22891;50.562;7.272;2023-03-01T02:41:43;101482.00;;;-3.91;nan
36980;BME280;22891;50.562;7.272;2023-03-01T02:44:10;101485.00;;;-4.07;nan
36980;BME280;22891;50.562;7.272;2023-03-01T02:46:43;101474.00;;;-3.99;nan
36980;BME280;22891;50.562;7.272;2023-03-01T02:49:23;101440.00;;;-3.94;nan
36980;BME280;22891;50.562;7.272;2023-03-01T02:52:23;101422.00;;;-3.78;nan
36980;BME280;22891;50.562;7.272;2023-03-01T02:55:06;101433.00;;;-3.93;nan
36980;BME280;22891;50.562;7.272;2023-03-01T02:57:35;101409.00;;;-3.92;nan
36980;BME280;22891;50.562;7.272;2023-03-01T03:00:12;101432.00;;;-3.87;nan
36980;BME280;22891;50.562;7.272;2023-03-01T03:02:46;101396.00;;;-3.93;nan
36980;BME280;22891;50.562;7.272;2023-03-01T03:05:15;101370.00;;;-4.00;nan
36980;BME280;22891;50.562;7.272;2023-03-01T03:07:44;101393.00;;;-3.98;nan
36980;BME280;22891;50.562;7.272;2023-03-01T03:10:19;101395.00;;;-4.06;nan
36980;BME280;22891;50.562;7.272;2023-03-01T03:12:51;101364.00;;;-4.06;nan
36980;BME280;22891;50.562;7.272;2023-03-01T03:15:18;101372.00;;;-4.05;nan
36980;BME280;22891;50.562;7.272;2023-03-01T03:17:43;101375.00;;;-4.15;nan
36980;BME280;22891;50.562;7.272;2023-03-01T03:20:11;101376.00;;;-4.11;nan
36980;BME280;22891;50.562;7.272;2023-03-01T03:22:41;101384.00;;;-4.07;nan
36980;BME280;22891;50.562;7.272;2023-03-01T03:25:07;101378.00;;;-3.92;nan
36980;BME280;22891;50.562;7.272;2023-03-01T03:27:37;101383.00;;;-3.92;nan
36980;BME280;22891;50.562;7.272;2023-03-01T03:30:05;101375.00;;;-3.92;nan
36980;BME280;22891;50.562;7.272;2023-03-01T03:32:40;101371.00;;;-4.11;nan
36980;BME280;22891;50.562;7.272;2023-03-01T03:35:09;101330.00;;;-4.02;nan
36980;BME280;22891;50.562;7.272;2023-03-01T03:37:40;101149.00;;;-4.09;nan
36980;BME280;22891;50.562;7.272;2023-03-01T03:40:25;101207.00;;;-4.11;nan
36980;BME280;22891;50.562;7.272;2023-03-01T03:42:53;101195.00;;;-4.06;nan
36980;BME280;22891;50.562;7.272;2023-03-01T03:45:19;101161.00;;;-4.08;nan
36980;BME280;22891;50.562;7.272;2023-03-01T03:47:45;101202.00;;;-4.42;nan
36980;BME280;22891;50.562;7.272;2023-03-01T03:50:13;101129.00;;;-4.52;nan
36980;BME280;22891;50.562;7.272;2023-03-01T03:52:39;101139.00;;;-4.48;nan
36980;BME280;22891;50.562;7.272;2023-03-01T03:55:06;101152.00;;;-4.23;nan
36980;BME280;22891;50.562;7.272;2023-03-01T03:57:35;101030.00;;;-4.33;nan
36980;BME280;22891;50.562;7.272;2023-03-01T04:00:02;101057.00;;;-4.55;nan
36980;BME280;22891;50.562;7.272;2023-03-01T04:02:30;101118.00;;;-4.58;nan
36980;BME280;22891;50.562;7.272;2023-03-01T04:04:56;101183.00;;;-4.53;nan
36980;BME280;22891;50.562;7.272;2023-03-01T04:07:23;101179.00;;;-4.49;nan
36980;BME280;22891;50.562;7.272;2023-03-01T04:09:55;101235.00;;;-4.49;nan
36980;BME280;22891;50.562;7.272;2023-03-01T04:12:21;101186.00;;;-4.39;nan
36980;BME280;22891;50.562;7.272;2023-03-01T04:14:48;101196.00;;;-4.48;nan
36980;BME280;22891;50.562;7.272;2023-03-01T04:17:14;101222.00;;;-4.42;nan
36980;BME280;22891;50.562;7.272;2023-03-01T04:19:40;101237.00;;;-4.66;nan
36980;BME280;22891;50.562;7.272;2023-03-01T04:22:09;101223.00;;;-4.29;nan
36980;BME280;22891;50.562;7.272;2023-03-01T04:24:36;101265.00;;;-4.59;nan
36980;BME280;22891;50.562;7.272;2023-03-01T04:27:02;101259.00;;;-4.75;nan
36980;BME280;22891;50.562;7.272;2023-03-01T04:29:28;100932.00;;;-4.90;nan
36980;BME280;22891;50.562;7.272;2023-03-01T04:31:54;100966.00;;;-4.78;nan
36980;BME280;22891;50.562;7.272;2023-03-01T04:34:19;101103.00;;;-4.67;nan
36980;BME280;22891;50.562;7.272;2023-03-01T04:36:45;101171.00;;;-4.63;nan
36980;BME280;22891;50.562;7.272;2023-03-01T04:39:11;101187.00;;;-4.54;nan
36980;BME280;22891;50.562;7.272;2023-03-01T04:41:38;101201.00;;;-4.58;nan
36980;BME280;22891;50.562;7.272;2023-03-01T04:44:05;101231.00;;;-4.76;nan
36980;BME280;22891;50.562;7.272;2023-03-01T04:46:31;101246.00;;;-4.92;nan
36980;BME280;22891;50.562;7.272;2023-03-01T04:48:57;101246.00;;;-4.76;nan
36980;BME280;22891;50.562;7.272;2023-03-01T04:51:23;101217.00;;;-4.72;nan
36980;BME280;22891;50.562;7.272;2023-03-01T04:53:49;101280.00;;;-4.75;nan
36980;BME280;22891;50.562;7.272;2023-03-01T04:56:16;101342.00;;;-4.68;nan
36980;BME280;22891;50.562;7.272;2023-03-01T04:58:54;101356.00;;;-4.75;nan
36980;BME280;22891;50.562;7.272;2023-03-01T05:01:21;101349.00;;;-4.79;nan
36980;BME280;22891;50.562;7.272;2023-03-01T05:03:51;101338.00;;;-4.64;nan
36980;BME280;22891;50.562;7.272;2023-03-01T05:06:18;101338.00;;;-4.61;nan
36980;BME280;22891;50.562;7.272;2023-03-01T05:08:45;101356.00;;;-4.87;nan
36980;BME280;22891;50.562;7.272;2023-03-01T05:11:12;101349.00;;;-4.85;nan
36980;BME280;22891;50.562;7.272;2023-03-01T05:13:38;101355.00;;;-4.82;nan
36980;BME280;22891;50.562;7.272;2023-03-01T05:16:06;101362.00;;;-4.77;nan
36980;BME280;22891;50.562;7.272;2023-03-01T05:18:33;101360.00;;;-4.82;nan
36980;BME280;22891;50.562;7.272;2023-03-01T05:21:15;101279.00;;;-4.93;nan
36980;BME280;22891;50.562;7.272;2023-03-01T05:23:42;101186.00;;;-4.91;nan
36980;BME280;22891;50.562;7.272;2023-03-01T05:26:08;101276.00;;;-4.98;nan
36980;BME280;22891;50.562;7.272;2023-03-01T05:28:35;101218.00;;;-4.99;nan
36980;BME280;22891;50.562;7.272;2023-03-01T05:31:01;101111.00;;;-4.87;nan
36980;BME280;22891;50.562;7.272;2023-03-01T05:33:27;101206.00;;;-4.94;nan
36980;BME280;22891;50.562;7.272;2023-03-01T05:35:53;101287.00;;;-4.92;nan
36980;BME280;22891;50.562;7.272;2023-03-01T05:38:20;101128.00;;;-5.01;nan
36980;BME280;22891;50.562;7.272;2023-03-01T05:40:47;101265.00;;;-5.29;nan
36980;BME280;22891;50.562;7.272;2023-03-01T05:45:42;101272.00;;;-5.40;nan
36980;BME280;22891;50.562;7.272;2023-03-01T05:48:09;101276.00;;;-5.29;nan
36980;BME280;22891;50.562;7.272;2023-03-01T05:50:41;101270.00;;;-5.35;nan
36980;BME280;22891;50.562;7.272;2023-03-01T05:53:13;101269.00;;;-5.40;nan
36980;BME280;22891;50.562;7.272;2023-03-01T05:55:40;101251.00;;;-5.31;nan
36980;BME280;22891;50.562;7.272;2023-03-01T05:58:10;101265.00;;;-5.26;nan
36980;BME280;22891;50.562;7.272;2023-03-01T06:00:37;101233.00;;;-5.27;nan
36980;BME280;22891;50.562;7.272;2023-03-01T06:03:03;101240.00;;;-5.26;nan
36980;BME280;22891;50.562;7.272;2023-03-01T06:05:29;101268.00;;;-5.33;nan
36980;BME280;22891;50.562;7.272;2023-03-01T06:07:58;101286.00;;;-5.35;nan
36980;BME280;22891;50.562;7.272;2023-03-01T06:10:25;101254.00;;;-5.29;nan
36980;BME280;22891;50.562;7.272;2023-03-01T06:12:51;101312.00;;;-5.41;nan
36980;BME280;22891;50.562;7.272;2023-03-01T06:15:17;101313.00;;;-5.52;nan
36980;BME280;22891;50.562;7.272;2023-03-01T06:17:44;101318.00;;;-5.34;nan
36980;BME280;22891;50.562;7.272;2023-03-01T06:20:19;101312.00;;;-5.30;nan
36980;BME280;22891;50.562;7.272;2023-03-01T06:22:45;101311.00;;;-5.32;nan
36980;BME280;22891;50.562;7.272;2023-03-01T06:25:14;101313.00;;;-5.37;nan
36980;BME280;22891;50.562;7.272;2023-03-01T06:27:41;101305.00;;;-5.30;nan
36980;BME280;22891;50.562;7.272;2023-03-01T06:30:13;101309.00;;;-5.15;nan
36980;BME280;22891;50.562;7.272;2023-03-01T06:32:40;101299.00;;;-5.35;nan
36980;BME280;22891;50.562;7.272;2023-03-01T06:35:08;101277.00;;;-5.43;nan
36980;BME280;22891;50.562;7.272;2023-03-01T06:37:36;101128.00;;;-5.33;nan
36980;BME280;22891;50.562;7.272;2023-03-01T06:40:04;101120.00;;;-5.24;nan
36980;BME280;22891;50.562;7.272;2023-03-01T06:42:35;101196.00;;;-5.12;nan
36980;BME280;22891;50.562;7.272;2023-03-01T06:45:01;101205.00;;;-5.10;nan
36980;BME280;22891;50.562;7.272;2023-03-01T06:47:27;101210.00;;;-5.22;nan
36980;BME280;22891;50.562;7.272;2023-03-01T06:49:53;101222.00;;;-5.15;nan
36980;BME280;22891;50.562;7.272;2023-03-01T06:52:19;101223.00;;;-5.24;nan
36980;BME280;22891;50.562;7.272;2023-03-01T06:54:45;101199.00;;;-5.41;nan
36980;BME280;22891;50.562;7.272;2023-03-01T06:57:11;101211.00;;;-5.34;nan
36980;BME280;22891;50.562;7.272;2023-03-01T06:59:37;101237.00;;;-5.09;nan
36980;BME280;22891;50.562;7.272;2023-03-01T07:02:02;101254.00;;;-5.26;nan
36980;BME280;22891;50.562;7.272;2023-03-01T07:04:28;101255.00;;;-5.29;nan
36980;BME280;22891;50.562;7.272;2023-03-01T07:06:57;101247.00;;;-5.31;nan
36980;BME280;22891;50.562;7.272;2023-03-01T07:09:23;101168.00;;;-5.23;nan
36980;BME280;22891;50.562;7.272;2023-03-01T07:11:49;101202.00;;;-5.44;nan
36980;BME280;22891;50.562;7.272;2023-03-01T07:14:15;101117.00;;;-5.47;nan
36980;BME280;22891;50.562;7.272;2023-03-01T07:16:41;101331.00;;;-5.08;nan
36980;BME280;22891;50.562;7.272;2023-03-01T07:19:08;101343.00;;;-5.13;nan
36980;BME280;22891;50.562;7.272;2023-03-01T07:21:34;101337.00;;;-5.05;nan
36980;BME280;22891;50.562;7.272;2023-03-01T07:23:59;101332.00;;;-5.11;nan
36980;BME280;22891;50.562;7.272;2023-03-01T07:26:26;101330.00;;;-5.09;nan
36980;BME280;22891;50.562;7.272;2023-03-01T07:28:51;101330.00;;;-5.02;nan
36980;BME280;22891;50.562;7.272;2023-03-01T07:31:17;101340.00;;;-4.88;nan
36980;BME280;22891;50.562;7.272;2023-03-01T07:33:43;101338.00;;;-4.80;nan
36980;BME280;22891;50.562;7.272;2023-03-01T07:36:09;101339.00;;;-4.67;nan
36980;BME280;22891;50.562;7.272;2023-03-01T07:38:35;101331.00;;;-4.87;nan
36980;BME280;22891;50.562;7.272;2023-03-01T07:41:03;101325.00;;;-4.81;nan
36980;BME280;22891;50.562;7.272;2023-03-01T07:43:30;101317.00;;;-4.71;nan
36980;BME280;22891;50.562;7.272;2023-03-01T07:46:00;101325.00;;;-4.60;nan
36980;BME280;22891;50.562;7.272;2023-03-01T07:48:26;101328.00;;;-4.55;nan
36980;BME280;22891;50.562;7.272;2023-03-01T07:50:52;101339.00;;;-4.59;nan
36980;BME280;22891;50.562;7.272;2023-03-01T07:53:18;101320.00;;;-4.60;nan
36980;BME280;22891;50.562;7.272;2023-03-01T07:55:43;101327.00;;;-4.30;nan
36980;BME280;22891;50.562;7.272;2023-03-01T07:58:10;101335.00;;;-4.30;nan
36980;BME280;22891;50.562;7.272;2023-03-01T08:00:37;101352.00;;;-4.13;nan
36980;BME280;22891;50.562;7.272;2023-03-01T08:03:03;101351.00;;;-4.05;nan
36980;BME280;22891;50.562;7.272;2023-03-01T08:05:29;101360.00;;;-3.79;nan
36980;BME280;22891;50.562;7.272;2023-03-01T08:07:55;101363.00;;;-3.73;nan
36980;BME280;22891;50.562;7.272;2023-03-01T08:10:21;101374.00;;;-3.43;nan
36980;BME280;22891;50.562;7.272;2023-03-01T08:12:47;101390.00;;;-3.36;nan
36980;BME280;22891;50.562;7.272;2023-03-01T08:15:13;101404.00;;;-3.45;nan
36980;BME280;22891;50.562;7.272;2023-03-01T08:17:39;101415.00;;;-3.33;nan
36980;BME280;22891;50.562;7.272;2023-03-01T08:20:06;101426.00;;;-3.12;nan
36980;BME280;22891;50.562;7.272;2023-03-01T08:22:32;101439.00;;;-2.89;nan
36980;BME280;22891;50.562;7.272;2023-03-01T08:24:58;101434.00;;;-2.80;nan
36980;BME280;22891;50.562;7.272;2023-03-01T08:27:24;101441.00;;;-2.78;nan
36980;BME280;22891;50.562;7.272;2023-03-01T08:29:50;101449.00;;;-2.94;nan
36980;BME280;22891;50.562;7.272;2023-03-01T08:32:16;101452.00;;;-2.54;nan
36980;BME280;22891;50.562;7.272;2023-03-01T08:34:41;101466.00;;;-2.39;nan
36980;BME280;22891;50.562;7.272;2023-03-01T08:37:08;101469.00;;;-2.49;nan
36980;BME280;22891;50.562;7.272;2023-03-01T08:39:34;101468.00;;;-2.17;nan
36980;BME280;22891;50.562;7.272;2023-03-01T08:41:59;101464.00;;;-1.97;nan
36980;BME280;22891;50.562;7.272;2023-03-01T08:44:26;101465.00;;;-2.17;nan
36980;BME280;22891;50.562;7.272;2023-03-01T08:46:52;101390.00;;;-1.92;nan
36980;BME280;22891;50.562;7.272;2023-03-01T08:49:20;101452.00;;;-1.80;nan
36980;BME280;22891;50.562;7.272;2023-03-01T08:51:47;101536.00;;;-1.67;nan
36980;BME280;22891;50.562;7.272;2023-03-01T08:54:16;101547.00;;;-0.96;nan
36980;BME280;22891;50.562;7.272;2023-03-01T08:56:42;101539.00;;;-0.25;nan
36980;BME280;22891;50.562;7.272;2023-03-01T08:59:12;101582.00;;;-0.23;nan
36980;BME280;22891;50.562;7.272;2023-03-01T09:01:40;101663.00;;;0.74;nan
36980;BME280;22891;50.562;7.272;2023-03-01T09:04:08;101712.00;;;0.69;nan
36980;BME280;22891;50.562;7.272;2023-03-01T09:06:35;101753.00;;;0.20;nan
36980;BME280;22891;50.562;7.272;2023-03-01T09:09:02;101756.00;;;1.07;nan
36980;BME280;22891;50.562;7.272;2023-03-01T09:11:28;101783.00;;;1.79;nan
36980;BME280;22891;50.562;7.272;2023-03-01T09:13:55;101801.00;;;1.65;nan
36980;BME280;22891;50.562;7.272;2023-03-01T09:16:22;101826.00;;;1.79;nan
36980;BME280;22891;50.562;7.272;2023-03-01T09:18:51;101833.00;;;2.14;nan
36980;BME280;22891;50.562;7.272;2023-03-01T09:21:19;101852.00;;;3.31;nan
36980;BME280;22891;50.562;7.272;2023-03-01T09:23:46;101862.00;;;3.18;nan
36980;BME280;22891;50.562;7.272;2023-03-01T09:26:15;101882.00;;;3.73;nan
36980;BME280;22891;50.562;7.272;2023-03-01T09:28:49;101893.00;;;4.66;nan
36980;BME280;22891;50.562;7.272;2023-03-01T09:31:18;101875.00;;;4.56;nan
36980;BME280;22891;50.562;7.272;2023-03-01T09:33:47;101909.00;;;5.14;nan
36980;BME280;22891;50.562;7.272;2023-03-01T09:36:18;101906.00;;;4.44;nan
36980;BME280;22891;50.562;7.272;2023-03-01T09:38:47;101894.00;;;4.27;nan
36980;BME280;22891;50.562;7.272;2023-03-01T09:48:46;101881.00;;;5.86;nan
36980;BME280;22891;50.562;7.272;2023-03-01T09:51:19;101884.00;;;6.73;nan
36980;BME280;22891;50.562;7.272;2023-03-01T09:53:49;101879.00;;;6.70;nan
36980;BME280;22891;50.562;7.272;2023-03-01T09:56:30;101883.00;;;6.56;nan
36980;BME280;22891;50.562;7.272;2023-03-01T09:59:20;101859.00;;;7.22;nan
36980;BME280;22891;50.562;7.272;2023-03-01T10:04:45;101877.00;;;9.14;nan
36980;BME280;22891;50.562;7.272;2023-03-01T10:13:29;101864.00;;;9.14;nan
36980;BME280;22891;50.562;7.272;2023-03-01T10:16:13;101861.00;;;7.54;nan
36980;BME280;22891;50.562;7.272;2023-03-01T10:18:41;101853.00;;;7.46;nan
36980;BME280;22891;50.562;7.272;2023-03-01T10:21:15;101805.00;;;6.93;nan
36980;BME280;22891;50.562;7.272;2023-03-01T10:23:43;101841.00;;;7.52;nan
36980;BME280;22891;50.562;7.272;2023-03-01T10:26:27;101844.00;;;9.44;nan
36980;BME280;22891;50.562;7.272;2023-03-01T10:29:10;101847.00;;;8.80;nan
36980;BME280;22891;50.562;7.272;2023-03-01T10:31:46;101841.00;;;9.55;nan
36980;BME280;22891;50.562;7.272;2023-03-01T10:34:18;101835.00;;;10.04;nan
36980;BME280;22891;50.562;7.272;2023-03-01T10:37:08;101833.00;;;9.93;nan
36980;BME280;22891;50.562;7.272;2023-03-01T10:39:34;101832.00;;;8.63;nan
36980;BME280;22891;50.562;7.272;2023-03-01T10:42:09;101826.00;;;9.21;nan
36980;BME280;22891;50.562;7.272;2023-03-01T10:44:49;101824.00;;;8.96;nan
36980;BME280;22891;50.562;7.272;2023-03-01T10:47:20;101818.00;;;8.74;nan
36980;BME280;22891;50.562;7.272;2023-03-01T10:50:08;101820.00;;;9.27;nan
36980;BME280;22891;50.562;7.272;2023-03-01T10:52:59;101802.00;;;8.75;nan
36980;BME280;22891;50.562;7.272;2023-03-01T10:55:35;101806.00;;;8.32;nan
36980;BME280;22891;50.562;7.272;2023-03-01T10:58:18;101800.00;;;8.88;nan
36980;BME280;22891;50.562;7.272;2023-03-01T11:00:54;101795.00;;;9.46;nan
36980;BME280;22891;50.562;7.272;2023-03-01T11:03:34;101794.00;;;9.77;nan
36980;BME280;22891;50.562;7.272;2023-03-01T11:07:52;101780.00;;;9.12;nan
36980;BME280;22891;50.562;7.272;2023-03-01T11:10:36;101769.00;;;9.59;nan
36980;BME280;22891;50.562;7.272;2023-03-01T11:13:16;101765.00;;;9.53;nan
36980;BME280;22891;50.562;7.272;2023-03-01T11:15:43;101762.00;;;9.33;nan
36980;BME280;22891;50.562;7.272;2023-03-01T11:18:23;101764.00;;;9.43;nan
36980;BME280;22891;50.562;7.272;2023-03-01T11:20:51;101756.00;;;9.62;nan
36980;BME280;22891;50.562;7.272;2023-03-01T11:23:20;101752.00;;;9.80;nan
36980;BME280;22891;50.562;7.272;2023-03-01T11:26:25;101743.00;;;9.54;nan
36980;BME280;22891;50.562;7.272;2023-03-01T11:28:55;101749.00;;;9.63;nan
36980;BME280;22891;50.562;7.272;2023-03-01T11:31:24;101770.00;;;10.98;nan
36980;BME280;22891;50.562;7.272;2023-03-01T11:34:05;101767.00;;;10.80;nan
36980;BME280;22891;50.562;7.272;2023-03-01T11:36:49;101713.00;;;10.89;nan
36980;BME280;22891;50.562;7.272;2023-03-01T11:39:31;101741.00;;;11.34;nan
36980;BME280;22891;50.562;7.272;2023-03-01T11:42:21;101740.00;;;10.80;nan
36980;BME280;22891;50.562;7.272;2023-03-01T11:44:55;101742.00;;;10.68;nan
36980;BME280;22891;50.562;7.272;2023-03-01T11:53:21;101724.00;;;11.39;nan
36980;BME280;22891;50.562;7.272;2023-03-01T11:56:24;101697.00;;;12.29;nan
36980;BME280;22891;50.562;7.272;2023-03-01T12:00:01;101714.00;;;12.21;nan
36980;BME280;22891;50.562;7.272;2023-03-01T12:02:57;101688.00;;;10.70;nan
36980;BME280;22891;50.562;7.272;2023-03-01T12:05:52;101681.00;;;11.36;nan
36980;BME280;22891;50.562;7.272;2023-03-01T12:08:35;101692.00;;;11.29;nan
36980;BME280;22891;50.562;7.272;2023-03-01T12:11:39;101682.00;;;11.50;nan
36980;BME280;22891;50.562;7.272;2023-03-01T12:20:34;101679.00;;;11.00;nan
36980;BME280;22891;50.562;7.272;2023-03-01T12:23:51;101659.00;;;11.60;nan
36980;BME280;22891;50.562;7.272;2023-03-01T12:28:17;101663.00;;;11.20;nan
36980;BME280;22891;50.562;7.272;2023-03-01T12:49:13;101626.00;;;10.18;nan
36980;BME280;22891;50.562;7.272;2023-03-01T12:51:44;101621.00;;;11.12;nan
36980;BME280;22891;50.562;7.272;2023-03-01T12:54:22;101617.00;;;11.13;nan
36980;BME280;22891;50.562;7.272;2023-03-01T12:56:52;101611.00;;;10.68;nan
36980;BME280;22891;50.562;7.272;2023-03-01T12:59:48;101616.00;;;10.87;nan
36980;BME280;22891;50.562;7.272;2023-03-01T13:02:30;101614.00;;;11.14;nan
36980;BME280;22891;50.562;7.272;2023-03-01T13:11:02;101608.00;;;11.04;nan
36980;BME280;22891;50.562;7.272;2023-03-01T13:13:29;101608.00;;;10.32;nan
36980;BME280;22891;50.562;7.272;2023-03-01T13:16:20;101611.00;;;11.35;nan
36980;BME280;22891;50.562;7.272;2023-03-01T13:18:46;101611.00;;;11.85;nan
36980;BME280;22891;50.562;7.272;2023-03-01T13:21:12;101601.00;;;11.60;nan
36980;BME280;22891;50.562;7.272;2023-03-01T13:23:39;101601.00;;;11.37;nan
36980;BME280;22891;50.562;7.272;2023-03-01T13:26:17;101611.00;;;10.93;nan
36980;BME280;22891;50.562;7.272;2023-03-01T13:28:57;101594.00;;;10.99;nan
36980;BME280;22891;50.562;7.272;2023-03-01T13:32:18;101589.00;;;11.30;nan
36980;BME280;22891;50.562;7.272;2023-03-01T13:34:46;101595.00;;;10.83;nan
36980;BME280;22891;50.562;7.272;2023-03-01T13:37:29;101591.00;;;11.10;nan
36980;BME280;22891;50.562;7.272;2023-03-01T13:40:02;101585.00;;;10.81;nan
36980;BME280;22891;50.562;7.272;2023-03-01T13:42:36;101580.00;;;11.13;nan
36980;BME280;22891;50.562;7.272;2023-03-01T13:45:48;101579.00;;;11.34;nan
36980;BME280;22891;50.562;7.272;2023-03-01T13:48:27;101578.00;;;11.21;nan
36980;BME280;22891;50.562;7.272;2023-03-01T13:51:06;101572.00;;;11.03;nan
36980;BME280;22891;50.562;7.272;2023-03-01T13:53:40;101579.00;;;11.45;nan
36980;BME280;22891;50.562;7.272;2023-03-01T13:56:19;101574.00;;;11.56;nan
36980;BME280;22891;50.562;7.272;2023-03-01T13:58:52;101563.00;;;10.99;nan
36980;BME280;22891;50.562;7.272;2023-03-01T14:01:25;101567.00;;;11.21;nan
36980;BME280;22891;50.562;7.272;2023-03-01T14:03:52;101565.00;;;11.30;nan
36980;BME280;22891;50.562;7.272;2023-03-01T14:06:26;101559.00;;;11.24;nan
36980;BME280;22891;50.562;7.272;2023-03-01T14:09:21;101559.00;;;10.50;nan
36980;BME280;22891;50.562;7.272;2023-03-01T14:12:33;101550.00;;;10.35;nan
36980;BME280;22891;50.562;7.272;2023-03-01T14:18:18;101552.00;;;10.83;nan
36980;BME280;22891;50.562;7.272;2023-03-01T14:20:55;101543.00;;;10.75;nan
36980;BME280;22891;50.562;7.272;2023-03-01T14:23:23;101548.00;;;10.77;nan
36980;BME280;22891;50.562;7.272;2023-03-01T14:25:54;101544.00;;;10.85;nan
36980;BME280;22891;50.562;7.272;2023-03-01T14:28:30;101531.00;;;11.34;nan
36980;BME280;22891;50.562;7.272;2023-03-01T14:31:00;101534.00;;;11.26;nan
36980;BME280;22891;50.562;7.272;2023-03-01T14:33:36;101538.00;;;10.81;nan
36980;BME280;22891;50.562;7.272;2023-03-01T14:36:06;101519.00;;;11.08;nan
36980;BME280;22891;50.562;7.272;2023-03-01T14:38:37;101529.00;;;10.41;nan
36980;BME280;22891;50.562;7.272;2023-03-01T14:41:25;101518.00;;;10.63;nan
36980;BME280;22891;50.562;7.272;2023-03-01T14:44:03;101525.00;;;10.26;nan
36980;BME280;22891;50.562;7.272;2023-03-01T14:46:36;101516.00;;;10.43;nan